sensor_id;sensor_type;location;lat;lon;timestamp;P1;durP1;ratioP1;P2;durP2;ratioP2
71343;SDS011;59146;43.850;25.948;2022-10-18T00:01:02;17.23;;;8.93;;
71343;SDS011;59146;43.850;25.948;2022-10-18T00:03:28;13.45;;;8.65;;
71343;SDS011;59146;43.850;25.948;2022-10-18T00:05:54;20.00;;;8.88;;
71343;SDS011;59146;43.850;25.948;2022-10-18T00:08:19;15.63;;;8.30;;
71343;SDS011;59146;43.850;25.948;2022-10-18T00:10:45;11.30;;;7.07;;
71343;SDS011;59146;43.850;25.948;2022-10-18T00:13:10;18.88;;;7.25;;
71343;SDS011;59146;43.850;25.948;2022-10-18T00:15:36;14.50;;;8.38;;
71343;SDS011;59146;43.850;25.948;2022-10-18T00:18:01;17.42;;;7.95;;
71343;SDS011;59146;43.850;25.948;2022-10-18T00:20:27;14.73;;;7.90;;
71343;SDS011;59146;43.850;25.948;2022-10-18T00:22:52;12.95;;;7.63;;
71343;SDS011;59146;43.850;25.948;2022-10-18T00:25:18;14.00;;;8.18;;
71343;SDS011;59146;43.850;25.948;2022-10-18T00:27:44;18.95;;;9.15;;
71343;SDS011;59146;43.850;25.948;2022-10-18T00:30:09;13.48;;;7.95;;
71343;SDS011;59146;43.850;25.948;2022-10-18T00:32:36;12.77;;;8.00;;
71343;SDS011;59146;43.850;25.948;2022-10-18T00:35:02;11.10;;;7.95;;
71343;SDS011;59146;43.850;25.948;2022-10-18T00:37:28;12.23;;;8.43;;
71343;SDS011;59146;43.850;25.948;2022-10-18T00:39:53;11.65;;;7.55;;
71343;SDS011;59146;43.850;25.948;2022-10-18T00:42:19;15.05;;;8.40;;
71343;SDS011;59146;43.850;25.948;2022-10-18T00:47:15;15.38;;;8.43;;
71343;SDS011;59146;43.850;25.948;2022-10-18T00:49:43;15.27;;;8.48;;
71343;SDS011;59146;43.850;25.948;2022-10-18T00:52:17;18.60;;;8.38;;
71343;SDS011;59146;43.850;25.948;2022-10-18T00:54:48;13.00;;;7.97;;
71343;SDS011;59146;43.850;25.948;2022-10-18T00:57:16;16.58;;;8.40;;
71343;SDS011;59146;43.850;25.948;2022-10-18T00:59:42;13.27;;;7.97;;
71343;SDS011;59146;43.850;25.948;2022-10-18T01:02:08;16.58;;;8.88;;
71343;SDS011;59146;43.850;25.948;2022-10-18T01:04:34;20.85;;;8.77;;
71343;SDS011;59146;43.850;25.948;2022-10-18T01:07:16;16.88;;;8.40;;
71343;SDS011;59146;43.850;25.948;2022-10-18T01:10:08;11.95;;;8.30;;
71343;SDS011;59146;43.850;25.948;2022-10-18T01:15:25;12.93;;;8.00;;
71343;SDS011;59146;43.850;25.948;2022-10-18T01:25:52;15.43;;;8.27;;
71343;SDS011;59146;43.850;25.948;2022-10-18T01:36:15;16.58;;;8.82;;
71343;SDS011;59146;43.850;25.948;2022-10-18T01:38:52;33.10;;;9.75;;
71343;SDS011;59146;43.850;25.948;2022-10-18T01:41:20;22.95;;;8.95;;
71343;SDS011;59146;43.850;25.948;2022-10-18T01:43:48;16.23;;;9.32;;
71343;SDS011;59146;43.850;25.948;2022-10-18T01:46:18;13.43;;;8.15;;
71343;SDS011;59146;43.850;25.948;2022-10-18T01:48:48;17.48;;;9.45;;
71343;SDS011;59146;43.850;25.948;2022-10-18T01:51:17;20.30;;;9.02;;
71343;SDS011;59146;43.850;25.948;2022-10-18T01:53:44;14.50;;;9.43;;
71343;SDS011;59146;43.850;25.948;2022-10-18T01:59:16;15.65;;;8.93;;
71343;SDS011;59146;43.850;25.948;2022-10-18T02:01:45;16.63;;;10.45;;
71343;SDS011;59146;43.850;25.948;2022-10-18T02:04:22;21.53;;;9.83;;
71343;SDS011;59146;43.850;25.948;2022-10-18T02:07:06;23.05;;;9.63;;
71343;SDS011;59146;43.850;25.948;2022-10-18T02:10:00;17.55;;;10.02;;
71343;SDS011;59146;43.850;25.948;2022-10-18T02:12:32;27.95;;;9.48;;
71343;SDS011;59146;43.850;25.948;2022-10-18T02:14:58;30.95;;;10.00;;
71343;SDS011;59146;43.850;25.948;2022-10-18T02:17:27;16.42;;;9.70;;
71343;SDS011;59146;43.850;25.948;2022-10-18T02:19:54;19.13;;;8.73;;
71343;SDS011;59146;43.850;25.948;2022-10-18T02:22:21;21.38;;;9.70;;
71343;SDS011;59146;43.850;25.948;2022-10-18T02:24:51;15.25;;;9.25;;
71343;SDS011;59146;43.850;25.948;2022-10-18T02:27:18;28.30;;;10.15;;
71343;SDS011;59146;43.850;25.948;2022-10-18T02:29:44;19.95;;;8.93;;
71343;SDS011;59146;43.850;25.948;2022-10-18T02:35:10;19.50;;;8.75;;
71343;SDS011;59146;43.850;25.948;2022-10-18T02:37:43;19.42;;;8.48;;
71343;SDS011;59146;43.850;25.948;2022-10-18T02:40:12;22.42;;;9.00;;
71343;SDS011;59146;43.850;25.948;2022-10-18T02:42:42;12.43;;;8.63;;
71343;SDS011;59146;43.850;25.948;2022-10-18T02:45:10;20.92;;;9.52;;
71343;SDS011;59146;43.850;25.948;2022-10-18T02:47:37;23.50;;;10.35;;
71343;SDS011;59146;43.850;25.948;2022-10-18T02:50:03;19.50;;;10.38;;
71343;SDS011;59146;43.850;25.948;2022-10-18T02:52:29;14.02;;;9.55;;
71343;SDS011;59146;43.850;25.948;2022-10-18T02:54:54;16.45;;;9.32;;
71343;SDS011;59146;43.850;25.948;2022-10-18T02:57:20;20.52;;;10.15;;
71343;SDS011;59146;43.850;25.948;2022-10-18T02:59:45;18.92;;;9.50;;
71343;SDS011;59146;43.850;25.948;2022-10-18T03:02:11;14.90;;;9.18;;
71343;SDS011;59146;43.850;25.948;2022-10-18T03:04:36;16.83;;;9.15;;
71343;SDS011;59146;43.850;25.948;2022-10-18T03:07:01;26.45;;;12.98;;
71343;SDS011;59146;43.850;25.948;2022-10-18T03:09:27;19.60;;;10.23;;
71343;SDS011;59146;43.850;25.948;2022-10-18T03:11:52;19.25;;;9.77;;
71343;SDS011;59146;43.850;25.948;2022-10-18T03:14:18;17.55;;;9.45;;
71343;SDS011;59146;43.850;25.948;2022-10-18T03:16:43;27.38;;;9.50;;
71343;SDS011;59146;43.850;25.948;2022-10-18T03:19:09;18.08;;;9.43;;
71343;SDS011;59146;43.850;25.948;2022-10-18T03:21:34;18.50;;;9.98;;
71343;SDS011;59146;43.850;25.948;2022-10-18T03:24:00;17.95;;;9.43;;
71343;SDS011;59146;43.850;25.948;2022-10-18T03:26:26;20.05;;;9.75;;
71343;SDS011;59146;43.850;25.948;2022-10-18T03:28:51;14.18;;;8.57;;
71343;SDS011;59146;43.850;25.948;2022-10-18T03:31:17;16.20;;;8.95;;
71343;SDS011;59146;43.850;25.948;2022-10-18T03:33:42;16.02;;;8.60;;
71343;SDS011;59146;43.850;25.948;2022-10-18T03:36:07;15.52;;;8.02;;
71343;SDS011;59146;43.850;25.948;2022-10-18T03:38:33;17.38;;;7.50;;
71343;SDS011;59146;43.850;25.948;2022-10-18T03:40:58;22.00;;;9.98;;
71343;SDS011;59146;43.850;25.948;2022-10-18T03:43:24;26.42;;;9.60;;
71343;SDS011;59146;43.850;25.948;2022-10-18T03:45:49;26.52;;;9.57;;
71343;SDS011;59146;43.850;25.948;2022-10-18T03:48:15;27.50;;;10.52;;
71343;SDS011;59146;43.850;25.948;2022-10-18T03:50:41;42.80;;;11.75;;
71343;SDS011;59146;43.850;25.948;2022-10-18T03:53:07;33.55;;;9.98;;
71343;SDS011;59146;43.850;25.948;2022-10-18T03:55:33;32.72;;;11.75;;
71343;SDS011;59146;43.850;25.948;2022-10-18T03:57:58;26.08;;;9.65;;
71343;SDS011;59146;43.850;25.948;2022-10-18T04:00:23;23.50;;;9.48;;
71343;SDS011;59146;43.850;25.948;2022-10-18T04:02:49;21.85;;;9.27;;
71343;SDS011;59146;43.850;25.948;2022-10-18T04:05:14;28.38;;;9.75;;
71343;SDS011;59146;43.850;25.948;2022-10-18T04:07:40;24.10;;;10.20;;
71343;SDS011;59146;43.850;25.948;2022-10-18T04:10:05;34.53;;;10.27;;
71343;SDS011;59146;43.850;25.948;2022-10-18T04:12:31;30.08;;;10.38;;
71343;SDS011;59146;43.850;25.948;2022-10-18T04:14:57;21.48;;;10.13;;
71343;SDS011;59146;43.850;25.948;2022-10-18T04:17:22;21.90;;;10.20;;
71343;SDS011;59146;43.850;25.948;2022-10-18T04:19:47;39.92;;;11.48;;
71343;SDS011;59146;43.850;25.948;2022-10-18T04:22:13;41.60;;;15.10;;
71343;SDS011;59146;43.850;25.948;2022-10-18T04:24:39;32.05;;;15.80;;
71343;SDS011;59146;43.850;25.948;2022-10-18T04:27:04;27.58;;;16.77;;
71343;SDS011;59146;43.850;25.948;2022-10-18T04:29:31;26.70;;;14.38;;
71343;SDS011;59146;43.850;25.948;2022-10-18T04:31:56;40.47;;;15.30;;
71343;SDS011;59146;43.850;25.948;2022-10-18T04:34:22;25.98;;;14.23;;
71343;SDS011;59146;43.850;25.948;2022-10-18T04:36:47;44.90;;;15.93;;
71343;SDS011;59146;43.850;25.948;2022-10-18T04:39:13;34.50;;;14.13;;
71343;SDS011;59146;43.850;25.948;2022-10-18T04:41:38;46.17;;;15.07;;
71343;SDS011;59146;43.850;25.948;2022-10-18T04:44:03;56.38;;;17.38;;
71343;SDS011;59146;43.850;25.948;2022-10-18T04:46:29;37.28;;;14.52;;
71343;SDS011;59146;43.850;25.948;2022-10-18T04:48:54;48.58;;;17.88;;
71343;SDS011;59146;43.850;25.948;2022-10-18T04:51:20;56.03;;;16.90;;
71343;SDS011;59146;43.850;25.948;2022-10-18T04:53:45;40.15;;;14.77;;
71343;SDS011;59146;43.850;25.948;2022-10-18T04:56:11;35.28;;;14.48;;
71343;SDS011;59146;43.850;25.948;2022-10-18T04:58:36;44.78;;;15.30;;
71343;SDS011;59146;43.850;25.948;2022-10-18T05:01:05;52.03;;;15.73;;
71343;SDS011;59146;43.850;25.948;2022-10-18T05:03:31;36.72;;;13.65;;
71343;SDS011;59146;43.850;25.948;2022-10-18T05:05:57;30.92;;;14.63;;
71343;SDS011;59146;43.850;25.948;2022-10-18T05:08:22;64.10;;;15.85;;
71343;SDS011;59146;43.850;25.948;2022-10-18T05:10:48;64.82;;;16.40;;
71343;SDS011;59146;43.850;25.948;2022-10-18T05:13:13;56.08;;;18.00;;
71343;SDS011;59146;43.850;25.948;2022-10-18T05:15:39;61.15;;;20.08;;
71343;SDS011;59146;43.850;25.948;2022-10-18T05:18:04;38.38;;;18.85;;
71343;SDS011;59146;43.850;25.948;2022-10-18T05:20:30;38.55;;;17.70;;
71343;SDS011;59146;43.850;25.948;2022-10-18T05:22:56;33.70;;;18.05;;
71343;SDS011;59146;43.850;25.948;2022-10-18T05:25:21;40.13;;;19.35;;
71343;SDS011;59146;43.850;25.948;2022-10-18T05:27:47;42.65;;;18.25;;
71343;SDS011;59146;43.850;25.948;2022-10-18T05:30:12;37.80;;;16.13;;
71343;SDS011;59146;43.850;25.948;2022-10-18T05:32:38;40.15;;;15.82;;
71343;SDS011;59146;43.850;25.948;2022-10-18T05:35:03;33.42;;;15.65;;
71343;SDS011;59146;43.850;25.948;2022-10-18T05:37:29;44.25;;;14.10;;
71343;SDS011;59146;43.850;25.948;2022-10-18T05:39:54;38.78;;;17.92;;
71343;SDS011;59146;43.850;25.948;2022-10-18T05:42:20;48.55;;;19.92;;
71343;SDS011;59146;43.850;25.948;2022-10-18T05:44:46;51.15;;;19.10;;
71343;SDS011;59146;43.850;25.948;2022-10-18T05:47:12;50.83;;;18.58;;
71343;SDS011;59146;43.850;25.948;2022-10-18T05:49:37;40.85;;;15.15;;
71343;SDS011;59146;43.850;25.948;2022-10-18T05:52:03;40.95;;;15.20;;
71343;SDS011;59146;43.850;25.948;2022-10-18T05:54:28;43.55;;;15.45;;
71343;SDS011;59146;43.850;25.948;2022-10-18T05:56:54;44.35;;;14.98;;
71343;SDS011;59146;43.850;25.948;2022-10-18T05:59:19;66.45;;;27.45;;
71343;SDS011;59146;43.850;25.948;2022-10-18T06:01:44;49.10;;;15.93;;
71343;SDS011;59146;43.850;25.948;2022-10-18T06:04:10;47.72;;;16.92;;
71343;SDS011;59146;43.850;25.948;2022-10-18T06:06:36;36.25;;;12.73;;
71343;SDS011;59146;43.850;25.948;2022-10-18T06:09:03;38.45;;;12.73;;
71343;SDS011;59146;43.850;25.948;2022-10-18T06:11:29;23.73;;;11.75;;
71343;SDS011;59146;43.850;25.948;2022-10-18T06:13:55;39.17;;;12.73;;
71343;SDS011;59146;43.850;25.948;2022-10-18T06:16:24;36.65;;;12.00;;
71343;SDS011;59146;43.850;25.948;2022-10-18T06:18:51;30.00;;;10.65;;
71343;SDS011;59146;43.850;25.948;2022-10-18T06:21:18;31.50;;;11.73;;
71343;SDS011;59146;43.850;25.948;2022-10-18T06:23:48;28.10;;;10.30;;
71343;SDS011;59146;43.850;25.948;2022-10-18T06:26:15;29.58;;;10.57;;
71343;SDS011;59146;43.850;25.948;2022-10-18T06:28:40;39.47;;;12.40;;
71343;SDS011;59146;43.850;25.948;2022-10-18T06:31:06;48.33;;;12.73;;
71343;SDS011;59146;43.850;25.948;2022-10-18T06:33:32;37.50;;;11.18;;
71343;SDS011;59146;43.850;25.948;2022-10-18T06:35:59;47.88;;;12.50;;
71343;SDS011;59146;43.850;25.948;2022-10-18T06:38:27;52.08;;;11.98;;
71343;SDS011;59146;43.850;25.948;2022-10-18T06:40:54;38.85;;;10.95;;
71343;SDS011;59146;43.850;25.948;2022-10-18T06:43:20;43.38;;;11.00;;
71343;SDS011;59146;43.850;25.948;2022-10-18T06:45:46;81.88;;;39.67;;
71343;SDS011;59146;43.850;25.948;2022-10-18T06:48:12;47.47;;;17.27;;
71343;SDS011;59146;43.850;25.948;2022-10-18T06:50:37;40.55;;;17.30;;
71343;SDS011;59146;43.850;25.948;2022-10-18T06:53:02;33.88;;;16.52;;
71343;SDS011;59146;43.850;25.948;2022-10-18T06:55:32;35.90;;;14.85;;
71343;SDS011;59146;43.850;25.948;2022-10-18T06:57:58;36.97;;;17.20;;
71343;SDS011;59146;43.850;25.948;2022-10-18T07:00:24;37.25;;;12.98;;
71343;SDS011;59146;43.850;25.948;2022-10-18T07:02:49;24.02;;;11.73;;
71343;SDS011;59146;43.850;25.948;2022-10-18T07:05:14;28.40;;;16.38;;
71343;SDS011;59146;43.850;25.948;2022-10-18T07:07:40;31.52;;;17.45;;
71343;SDS011;59146;43.850;25.948;2022-10-18T07:10:05;41.38;;;17.85;;
71343;SDS011;59146;43.850;25.948;2022-10-18T07:12:31;27.60;;;15.20;;
71343;SDS011;59146;43.850;25.948;2022-10-18T07:14:57;20.95;;;8.93;;
71343;SDS011;59146;43.850;25.948;2022-10-18T07:17:23;16.33;;;7.97;;
71343;SDS011;59146;43.850;25.948;2022-10-18T07:19:48;18.50;;;7.85;;
71343;SDS011;59146;43.850;25.948;2022-10-18T07:22:13;11.93;;;7.70;;
71343;SDS011;59146;43.850;25.948;2022-10-18T07:24:39;22.85;;;8.35;;
71343;SDS011;59146;43.850;25.948;2022-10-18T07:27:05;10.90;;;7.75;;
71343;SDS011;59146;43.850;25.948;2022-10-18T07:29:31;12.60;;;7.88;;
71343;SDS011;59146;43.850;25.948;2022-10-18T07:31:57;17.73;;;7.53;;
71343;SDS011;59146;43.850;25.948;2022-10-18T07:34:23;11.57;;;7.15;;
71343;SDS011;59146;43.850;25.948;2022-10-18T07:36:48;13.15;;;8.25;;
71343;SDS011;59146;43.850;25.948;2022-10-18T07:39:13;19.05;;;7.80;;
71343;SDS011;59146;43.850;25.948;2022-10-18T07:41:39;19.33;;;7.55;;
71343;SDS011;59146;43.850;25.948;2022-10-18T07:44:04;15.85;;;7.45;;
71343;SDS011;59146;43.850;25.948;2022-10-18T07:46:30;13.90;;;7.95;;
71343;SDS011;59146;43.850;25.948;2022-10-18T07:48:56;15.45;;;8.25;;
71343;SDS011;59146;43.850;25.948;2022-10-18T07:51:23;16.73;;;8.68;;
71343;SDS011;59146;43.850;25.948;2022-10-18T07:53:50;24.77;;;10.57;;
71343;SDS011;59146;43.850;25.948;2022-10-18T07:56:16;25.63;;;12.73;;
71343;SDS011;59146;43.850;25.948;2022-10-18T07:58:45;24.70;;;18.23;;
71343;SDS011;59146;43.850;25.948;2022-10-18T08:01:12;23.35;;;16.10;;
71343;SDS011;59146;43.850;25.948;2022-10-18T08:03:38;16.25;;;8.30;;
71343;SDS011;59146;43.850;25.948;2022-10-18T08:06:05;12.27;;;8.40;;
71343;SDS011;59146;43.850;25.948;2022-10-18T08:08:36;18.23;;;7.87;;
71343;SDS011;59146;43.850;25.948;2022-10-18T08:11:06;17.45;;;9.30;;
71343;SDS011;59146;43.850;25.948;2022-10-18T08:13:36;19.45;;;8.00;;
71343;SDS011;59146;43.850;25.948;2022-10-18T08:16:04;28.00;;;8.60;;
71343;SDS011;59146;43.850;25.948;2022-10-18T08:18:41;23.58;;;8.82;;
71343;SDS011;59146;43.850;25.948;2022-10-18T08:21:07;15.50;;;8.57;;
71343;SDS011;59146;43.850;25.948;2022-10-18T08:23:34;22.15;;;8.93;;
71343;SDS011;59146;43.850;25.948;2022-10-18T08:26:00;16.35;;;8.55;;
71343;SDS011;59146;43.850;25.948;2022-10-18T08:28:30;17.58;;;8.48;;
71343;SDS011;59146;43.850;25.948;2022-10-18T08:30:55;27.08;;;9.85;;
71343;SDS011;59146;43.850;25.948;2022-10-18T08:33:21;18.60;;;8.50;;
71343;SDS011;59146;43.850;25.948;2022-10-18T08:35:53;20.52;;;9.38;;
71343;SDS011;59146;43.850;25.948;2022-10-18T08:38:20;17.00;;;8.43;;
71343;SDS011;59146;43.850;25.948;2022-10-18T08:40:45;16.48;;;8.32;;
71343;SDS011;59146;43.850;25.948;2022-10-18T08:45:58;14.55;;;9.05;;
71343;SDS011;59146;43.850;25.948;2022-10-18T08:48:34;17.63;;;7.65;;
71343;SDS011;59146;43.850;25.948;2022-10-18T08:51:05;18.98;;;7.88;;
71343;SDS011;59146;43.850;25.948;2022-10-18T08:53:55;15.52;;;7.72;;
71343;SDS011;59146;43.850;25.948;2022-10-18T08:56:27;14.40;;;7.78;;
71343;SDS011;59146;43.850;25.948;2022-10-18T08:58:53;19.35;;;9.02;;
71343;SDS011;59146;43.850;25.948;2022-10-18T09:06:43;19.05;;;9.40;;
71343;SDS011;59146;43.850;25.948;2022-10-18T09:19:46;20.80;;;9.63;;
71343;SDS011;59146;43.850;25.948;2022-10-18T09:22:20;18.90;;;9.07;;
71343;SDS011;59146;43.850;25.948;2022-10-18T09:25:21;18.05;;;8.70;;
71343;SDS011;59146;43.850;25.948;2022-10-18T09:33:12;20.45;;;7.72;;
71343;SDS011;59146;43.850;25.948;2022-10-18T09:36:00;25.10;;;7.60;;
71343;SDS011;59146;43.850;25.948;2022-10-18T09:38:28;16.85;;;7.63;;
71343;SDS011;59146;43.850;25.948;2022-10-18T09:41:03;17.70;;;7.45;;
71343;SDS011;59146;43.850;25.948;2022-10-18T09:46:38;19.90;;;7.70;;
71343;SDS011;59146;43.850;25.948;2022-10-18T09:49:16;19.05;;;7.90;;
71343;SDS011;59146;43.850;25.948;2022-10-18T09:51:46;19.80;;;7.57;;
71343;SDS011;59146;43.850;25.948;2022-10-18T09:54:22;14.57;;;7.25;;
71343;SDS011;59146;43.850;25.948;2022-10-18T09:59:26;19.42;;;7.40;;
71343;SDS011;59146;43.850;25.948;2022-10-18T10:01:59;16.65;;;7.05;;
71343;SDS011;59146;43.850;25.948;2022-10-18T10:04:24;15.27;;;6.78;;
71343;SDS011;59146;43.850;25.948;2022-10-18T10:06:51;21.98;;;7.32;;
71343;SDS011;59146;43.850;25.948;2022-10-18T10:09:21;11.75;;;7.72;;
71343;SDS011;59146;43.850;25.948;2022-10-18T10:11:51;19.75;;;6.07;;
71343;SDS011;59146;43.850;25.948;2022-10-18T10:14:23;21.60;;;7.10;;
71343;SDS011;59146;43.850;25.948;2022-10-18T10:16:51;14.00;;;6.93;;
71343;SDS011;59146;43.850;25.948;2022-10-18T10:19:24;21.27;;;6.82;;
71343;SDS011;59146;43.850;25.948;2022-10-18T10:21:59;14.80;;;7.40;;
71343;SDS011;59146;43.850;25.948;2022-10-18T10:27:36;25.38;;;6.90;;
71343;SDS011;59146;43.850;25.948;2022-10-18T10:30:20;26.80;;;7.65;;
71343;SDS011;59146;43.850;25.948;2022-10-18T10:32:51;20.35;;;8.32;;
71343;SDS011;59146;43.850;25.948;2022-10-18T10:37:51;12.82;;;8.10;;
71343;SDS011;59146;43.850;25.948;2022-10-18T10:40:19;14.80;;;6.47;;
71343;SDS011;59146;43.850;25.948;2022-10-18T10:45:22;13.80;;;6.85;;
71343;SDS011;59146;43.850;25.948;2022-10-18T10:47:49;11.25;;;5.97;;
71343;SDS011;59146;43.850;25.948;2022-10-18T10:50:24;12.25;;;5.63;;
71343;SDS011;59146;43.850;25.948;2022-10-18T10:52:52;14.88;;;6.55;;
71343;SDS011;59146;43.850;25.948;2022-10-18T10:55:18;9.18;;;5.30;;
71343;SDS011;59146;43.850;25.948;2022-10-18T10:57:47;16.38;;;5.65;;
71343;SDS011;59146;43.850;25.948;2022-10-18T11:03:21;20.13;;;5.85;;
71343;SDS011;59146;43.850;25.948;2022-10-18T11:05:52;13.65;;;5.90;;
71343;SDS011;59146;43.850;25.948;2022-10-18T11:08:32;10.05;;;4.88;;
71343;SDS011;59146;43.850;25.948;2022-10-18T11:11:21;16.98;;;6.18;;
71343;SDS011;59146;43.850;25.948;2022-10-18T11:20:08;12.18;;;5.32;;
71343;SDS011;59146;43.850;25.948;2022-10-18T11:22:17;16.50;;;6.18;;
71343;SDS011;59146;43.850;25.948;2022-10-18T11:24:46;10.85;;;5.82;;
71343;SDS011;59146;43.850;25.948;2022-10-18T11:30:00;7.63;;;4.75;;
71343;SDS011;59146;43.850;25.948;2022-10-18T11:35:49;8.80;;;4.18;;
71343;SDS011;59146;43.850;25.948;2022-10-18T11:43:48;13.10;;;5.57;;
71343;SDS011;59146;43.850;25.948;2022-10-18T11:54:18;8.15;;;5.00;;
71343;SDS011;59146;43.850;25.948;2022-10-18T11:56:49;14.18;;;6.38;;
71343;SDS011;59146;43.850;25.948;2022-10-18T12:02:29;11.30;;;5.60;;
71343;SDS011;59146;43.850;25.948;2022-10-18T12:05:08;13.95;;;5.40;;
71343;SDS011;59146;43.850;25.948;2022-10-18T12:07:36;12.75;;;6.28;;
71343;SDS011;59146;43.850;25.948;2022-10-18T12:10:07;19.80;;;9.35;;
71343;SDS011;59146;43.850;25.948;2022-10-18T12:12:40;15.63;;;6.55;;
71343;SDS011;59146;43.850;25.948;2022-10-18T12:15:18;10.35;;;6.25;;
71343;SDS011;59146;43.850;25.948;2022-10-18T12:17:47;12.00;;;6.18;;
71343;SDS011;59146;43.850;25.948;2022-10-18T12:20:22;20.50;;;5.43;;
71343;SDS011;59146;43.850;25.948;2022-10-18T12:25:38;16.83;;;6.32;;
71343;SDS011;59146;43.850;25.948;2022-10-18T12:33:29;12.43;;;5.07;;
71343;SDS011;59146;43.850;25.948;2022-10-18T12:38:43;8.20;;;4.57;;
71343;SDS011;59146;43.850;25.948;2022-10-18T12:41:21;6.10;;;4.40;;
71343;SDS011;59146;43.850;25.948;2022-10-18T12:44:01;16.08;;;4.78;;
71343;SDS011;59146;43.850;25.948;2022-10-18T12:46:48;15.38;;;4.05;;
71343;SDS011;59146;43.850;25.948;2022-10-18T12:49:37;11.07;;;4.05;;
71343;SDS011;59146;43.850;25.948;2022-10-18T12:52:17;7.47;;;4.05;;
71343;SDS011;59146;43.850;25.948;2022-10-18T13:13:47;8.98;;;4.32;;
71343;SDS011;59146;43.850;25.948;2022-10-18T13:16:44;10.27;;;4.03;;
71343;SDS011;59146;43.850;25.948;2022-10-18T13:19:19;10.30;;;4.07;;
71343;SDS011;59146;43.850;25.948;2022-10-18T13:27:02;11.45;;;3.97;;
71343;SDS011;59146;43.850;25.948;2022-10-18T13:32:36;12.40;;;4.47;;
71343;SDS011;59146;43.850;25.948;2022-10-18T13:38:35;7.28;;;3.90;;
71343;SDS011;59146;43.850;25.948;2022-10-18T13:46:18;13.23;;;4.13;;
71343;SDS011;59146;43.850;25.948;2022-10-18T13:51:21;14.85;;;4.38;;
71343;SDS011;59146;43.850;25.948;2022-10-18T14:08:37;7.18;;;3.50;;
71343;SDS011;59146;43.850;25.948;2022-10-18T14:14:16;16.10;;;3.85;;
71343;SDS011;59146;43.850;25.948;2022-10-18T14:19:50;11.93;;;3.90;;
71343;SDS011;59146;43.850;25.948;2022-10-18T14:24:54;9.20;;;3.30;;
71343;SDS011;59146;43.850;25.948;2022-10-18T14:27:22;14.23;;;4.88;;
71343;SDS011;59146;43.850;25.948;2022-10-18T14:29:50;10.05;;;3.45;;
71343;SDS011;59146;43.850;25.948;2022-10-18T14:32:33;9.60;;;3.65;;
71343;SDS011;59146;43.850;25.948;2022-10-18T14:34:59;5.93;;;3.40;;
71343;SDS011;59146;43.850;25.948;2022-10-18T14:37:26;13.27;;;4.32;;
71343;SDS011;59146;43.850;25.948;2022-10-18T14:39:57;19.00;;;4.45;;
71343;SDS011;59146;43.850;25.948;2022-10-18T14:42:24;16.70;;;4.25;;
71343;SDS011;59146;43.850;25.948;2022-10-18T14:44:51;13.05;;;5.05;;
71343;SDS011;59146;43.850;25.948;2022-10-18T14:47:35;19.15;;;6.07;;
71343;SDS011;59146;43.850;25.948;2022-10-18T14:50:01;13.05;;;4.28;;
71343;SDS011;59146;43.850;25.948;2022-10-18T14:52:28;18.98;;;4.13;;
71343;SDS011;59146;43.850;25.948;2022-10-18T14:54:56;13.25;;;5.95;;
71343;SDS011;59146;43.850;25.948;2022-10-18T14:57:27;20.10;;;5.95;;
71343;SDS011;59146;43.850;25.948;2022-10-18T14:59:59;10.75;;;4.80;;
71343;SDS011;59146;43.850;25.948;2022-10-18T15:02:28;13.55;;;4.30;;
71343;SDS011;59146;43.850;25.948;2022-10-18T15:07:32;15.88;;;4.65;;
71343;SDS011;59146;43.850;25.948;2022-10-18T15:09:59;16.70;;;4.53;;
71343;SDS011;59146;43.850;25.948;2022-10-18T15:12:27;18.95;;;6.63;;
71343;SDS011;59146;43.850;25.948;2022-10-18T15:14:53;12.35;;;6.50;;
71343;SDS011;59146;43.850;25.948;2022-10-18T15:17:21;40.38;;;28.65;;
71343;SDS011;59146;43.850;25.948;2022-10-18T15:19:59;11.40;;;7.47;;
71343;SDS011;59146;43.850;25.948;2022-10-18T15:22:30;14.18;;;8.20;;
71343;SDS011;59146;43.850;25.948;2022-10-18T15:25:16;20.95;;;6.60;;
71343;SDS011;59146;43.850;25.948;2022-10-18T15:27:49;15.15;;;5.35;;
71343;SDS011;59146;43.850;25.948;2022-10-18T15:30:18;19.92;;;6.13;;
71343;SDS011;59146;43.850;25.948;2022-10-18T15:32:56;13.48;;;5.63;;
71343;SDS011;59146;43.850;25.948;2022-10-18T15:35:33;9.90;;;4.72;;
71343;SDS011;59146;43.850;25.948;2022-10-18T15:38:45;10.98;;;5.38;;
71343;SDS011;59146;43.850;25.948;2022-10-18T15:40:50;19.23;;;6.90;;
71343;SDS011;59146;43.850;25.948;2022-10-18T15:45:48;22.52;;;6.93;;
71343;SDS011;59146;43.850;25.948;2022-10-18T15:48:18;17.10;;;7.57;;
71343;SDS011;59146;43.850;25.948;2022-10-18T15:50:49;19.10;;;6.05;;
71343;SDS011;59146;43.850;25.948;2022-10-18T15:53:23;15.65;;;6.10;;
71343;SDS011;59146;43.850;25.948;2022-10-18T16:01:05;23.98;;;7.25;;
71343;SDS011;59146;43.850;25.948;2022-10-18T16:03:39;12.63;;;6.65;;
71343;SDS011;59146;43.850;25.948;2022-10-18T16:06:05;11.32;;;6.10;;
71343;SDS011;59146;43.850;25.948;2022-10-18T16:08:35;18.55;;;7.55;;
71343;SDS011;59146;43.850;25.948;2022-10-18T16:11:05;14.75;;;6.18;;
71343;SDS011;59146;43.850;25.948;2022-10-18T16:13:42;18.33;;;8.55;;
71343;SDS011;59146;43.850;25.948;2022-10-18T16:16:10;28.92;;;9.43;;
71343;SDS011;59146;43.850;25.948;2022-10-18T16:18:38;31.42;;;9.63;;
71343;SDS011;59146;43.850;25.948;2022-10-18T16:21:04;23.88;;;9.23;;
71343;SDS011;59146;43.850;25.948;2022-10-18T16:23:30;31.92;;;10.20;;
71343;SDS011;59146;43.850;25.948;2022-10-18T16:25:55;41.20;;;13.60;;
71343;SDS011;59146;43.850;25.948;2022-10-18T16:28:22;39.00;;;18.23;;
71343;SDS011;59146;43.850;25.948;2022-10-18T16:30:56;22.25;;;9.52;;
71343;SDS011;59146;43.850;25.948;2022-10-18T16:33:24;48.33;;;24.75;;
71343;SDS011;59146;43.850;25.948;2022-10-18T16:35:50;27.02;;;10.00;;
71343;SDS011;59146;43.850;25.948;2022-10-18T16:38:37;29.15;;;9.50;;
71343;SDS011;59146;43.850;25.948;2022-10-18T16:41:02;43.67;;;14.70;;
71343;SDS011;59146;43.850;25.948;2022-10-18T16:43:29;43.15;;;14.73;;
71343;SDS011;59146;43.850;25.948;2022-10-18T16:45:55;60.80;;;18.05;;
71343;SDS011;59146;43.850;25.948;2022-10-18T16:48:22;47.42;;;20.48;;
71343;SDS011;59146;43.850;25.948;2022-10-18T16:50:48;58.50;;;27.45;;
71343;SDS011;59146;43.850;25.948;2022-10-18T16:53:14;56.40;;;24.08;;
71343;SDS011;59146;43.850;25.948;2022-10-18T16:55:43;58.47;;;24.98;;
71343;SDS011;59146;43.850;25.948;2022-10-18T16:58:15;86.63;;;35.05;;
71343;SDS011;59146;43.850;25.948;2022-10-18T17:00:42;75.45;;;28.38;;
71343;SDS011;59146;43.850;25.948;2022-10-18T17:03:10;50.90;;;18.77;;
71343;SDS011;59146;43.850;25.948;2022-10-18T17:05:39;56.60;;;19.05;;
71343;SDS011;59146;43.850;25.948;2022-10-18T17:08:09;44.75;;;17.52;;
71343;SDS011;59146;43.850;25.948;2022-10-18T17:10:43;59.08;;;21.25;;
71343;SDS011;59146;43.850;25.948;2022-10-18T17:13:09;55.88;;;21.40;;
71343;SDS011;59146;43.850;25.948;2022-10-18T17:15:34;50.88;;;22.17;;
71343;SDS011;59146;43.850;25.948;2022-10-18T17:18:00;57.22;;;22.85;;
71343;SDS011;59146;43.850;25.948;2022-10-18T17:20:25;65.80;;;24.30;;
71343;SDS011;59146;43.850;25.948;2022-10-18T17:22:52;65.88;;;26.10;;
71343;SDS011;59146;43.850;25.948;2022-10-18T17:25:18;66.35;;;25.42;;
71343;SDS011;59146;43.850;25.948;2022-10-18T17:27:44;73.43;;;25.80;;